sensor_id;sensor_type;location;lat;lon;timestamp;P1;durP1;ratioP1;P2;durP2;ratioP2
27209;SDS011;14721;42.668;23.386;2023-02-22T00:01:09;17.20;;;5.87;;
27209;SDS011;14721;42.668;23.386;2023-02-22T00:04:09;13.67;;;6.53;;
27209;SDS011;14721;42.668;23.386;2023-02-22T00:06:35;10.17;;;5.90;;
27209;SDS011;14721;42.668;23.386;2023-02-22T00:09:01;13.63;;;5.80;;
27209;SDS011;14721;42.668;23.386;2023-02-22T00:11:27;11.63;;;5.97;;
27209;SDS011;14721;42.668;23.386;2023-02-22T00:13:53;18.53;;;5.83;;
27209;SDS011;14721;42.668;23.386;2023-02-22T00:16:22;11.27;;;5.27;;
27209;SDS011;14721;42.668;23.386;2023-02-22T00:18:48;12.77;;;5.43;;
27209;SDS011;14721;42.668;23.386;2023-02-22T00:21:15;12.70;;;5.73;;
27209;SDS011;14721;42.668;23.386;2023-02-22T00:23:43;14.60;;;5.97;;
27209;SDS011;14721;42.668;23.386;2023-02-22T00:26:18;11.07;;;4.53;;
27209;SDS011;14721;42.668;23.386;2023-02-22T00:28:46;12.03;;;5.37;;
27209;SDS011;14721;42.668;23.386;2023-02-22T00:31:13;9.90;;;4.73;;
27209;SDS011;14721;42.668;23.386;2023-02-22T00:33:40;9.00;;;4.73;;
27209;SDS011;14721;42.668;23.386;2023-02-22T00:36:06;12.83;;;5.17;;
27209;SDS011;14721;42.668;23.386;2023-02-22T00:38:32;12.07;;;4.50;;
27209;SDS011;14721;42.668;23.386;2023-02-22T00:40:57;13.00;;;5.80;;
27209;SDS011;14721;42.668;23.386;2023-02-22T00:43:23;10.70;;;4.50;;
27209;SDS011;14721;42.668;23.386;2023-02-22T00:45:49;9.93;;;4.00;;
27209;SDS011;14721;42.668;23.386;2023-02-22T00:48:14;8.63;;;4.10;;
27209;SDS011;14721;42.668;23.386;2023-02-22T00:50:40;9.60;;;4.23;;
27209;SDS011;14721;42.668;23.386;2023-02-22T00:53:06;12.20;;;3.93;;
27209;SDS011;14721;42.668;23.386;2023-02-22T00:55:34;16.33;;;4.27;;
27209;SDS011;14721;42.668;23.386;2023-02-22T00:58:01;14.43;;;4.20;;
27209;SDS011;14721;42.668;23.386;2023-02-22T01:00:29;13.37;;;4.27;;
27209;SDS011;14721;42.668;23.386;2023-02-22T01:03:06;10.27;;;4.40;;
27209;SDS011;14721;42.668;23.386;2023-02-22T01:05:34;12.60;;;4.83;;
27209;SDS011;14721;42.668;23.386;2023-02-22T01:08:02;9.23;;;4.53;;
27209;SDS011;14721;42.668;23.386;2023-02-22T01:10:30;12.97;;;6.30;;
27209;SDS011;14721;42.668;23.386;2023-02-22T01:12:56;10.07;;;4.43;;
27209;SDS011;14721;42.668;23.386;2023-02-22T01:15:24;16.77;;;5.17;;
27209;SDS011;14721;42.668;23.386;2023-02-22T01:17:55;9.13;;;4.50;;
27209;SDS011;14721;42.668;23.386;2023-02-22T01:20:22;12.77;;;4.57;;
27209;SDS011;14721;42.668;23.386;2023-02-22T01:22:50;10.50;;;4.87;;
27209;SDS011;14721;42.668;23.386;2023-02-22T01:25:18;12.57;;;5.03;;
27209;SDS011;14721;42.668;23.386;2023-02-22T01:27:47;11.83;;;4.57;;
27209;SDS011;14721;42.668;23.386;2023-02-22T01:30:14;18.53;;;9.07;;
27209;SDS011;14721;42.668;23.386;2023-02-22T01:32:41;15.30;;;6.83;;
27209;SDS011;14721;42.668;23.386;2023-02-22T01:35:12;8.40;;;4.50;;
27209;SDS011;14721;42.668;23.386;2023-02-22T01:37:42;11.43;;;5.87;;
27209;SDS011;14721;42.668;23.386;2023-02-22T01:40:09;11.00;;;5.37;;
27209;SDS011;14721;42.668;23.386;2023-02-22T01:42:40;12.93;;;5.80;;
27209;SDS011;14721;42.668;23.386;2023-02-22T01:45:30;11.63;;;5.83;;
27209;SDS011;14721;42.668;23.386;2023-02-22T01:53:35;13.13;;;5.90;;
27209;SDS011;14721;42.668;23.386;2023-02-22T01:56:05;11.57;;;5.57;;
27209;SDS011;14721;42.668;23.386;2023-02-22T01:58:33;10.20;;;5.53;;
27209;SDS011;14721;42.668;23.386;2023-02-22T02:01:04;14.77;;;5.50;;
27209;SDS011;14721;42.668;23.386;2023-02-22T02:03:31;17.60;;;5.37;;
27209;SDS011;14721;42.668;23.386;2023-02-22T02:06:04;11.87;;;5.50;;
27209;SDS011;14721;42.668;23.386;2023-02-22T02:08:43;14.77;;;6.43;;
27209;SDS011;14721;42.668;23.386;2023-02-22T02:11:17;13.77;;;6.30;;
27209;SDS011;14721;42.668;23.386;2023-02-22T02:13:45;10.50;;;5.30;;
27209;SDS011;14721;42.668;23.386;2023-02-22T02:16:15;15.23;;;6.70;;
27209;SDS011;14721;42.668;23.386;2023-02-22T02:18:40;10.83;;;5.07;;
27209;SDS011;14721;42.668;23.386;2023-02-22T02:27:21;16.70;;;5.30;;
27209;SDS011;14721;42.668;23.386;2023-02-22T02:32:38;15.70;;;7.27;;
27209;SDS011;14721;42.668;23.386;2023-02-22T02:38:13;14.23;;;6.23;;
27209;SDS011;14721;42.668;23.386;2023-02-22T02:40:51;11.73;;;5.50;;
27209;SDS011;14721;42.668;23.386;2023-02-22T02:49:32;14.73;;;5.80;;
27209;SDS011;14721;42.668;23.386;2023-02-22T02:52:02;13.67;;;5.87;;
27209;SDS011;14721;42.668;23.386;2023-02-22T02:54:29;20.07;;;7.73;;
27209;SDS011;14721;42.668;23.386;2023-02-22T02:56:56;17.13;;;7.13;;
27209;SDS011;14721;42.668;23.386;2023-02-22T02:59:24;18.60;;;8.30;;
27209;SDS011;14721;42.668;23.386;2023-02-22T03:10:19;14.53;;;5.80;;
27209;SDS011;14721;42.668;23.386;2023-02-22T03:26:30;15.73;;;5.80;;
27209;SDS011;14721;42.668;23.386;2023-02-22T03:29:04;9.23;;;4.83;;
27209;SDS011;14721;42.668;23.386;2023-02-22T03:31:33;15.70;;;6.23;;
27209;SDS011;14721;42.668;23.386;2023-02-22T03:34:06;14.00;;;5.97;;
27209;SDS011;14721;42.668;23.386;2023-02-22T03:36:58;9.63;;;4.87;;
27209;SDS011;14721;42.668;23.386;2023-02-22T03:39:30;10.30;;;6.00;;
27209;SDS011;14721;42.668;23.386;2023-02-22T03:42:00;20.30;;;5.63;;
27209;SDS011;14721;42.668;23.386;2023-02-22T03:44:30;16.20;;;5.20;;
27209;SDS011;14721;42.668;23.386;2023-02-22T03:47:04;12.13;;;5.77;;
27209;SDS011;14721;42.668;23.386;2023-02-22T03:49:34;12.90;;;5.73;;
27209;SDS011;14721;42.668;23.386;2023-02-22T03:52:06;11.83;;;5.97;;
27209;SDS011;14721;42.668;23.386;2023-02-22T03:54:34;10.47;;;5.40;;
27209;SDS011;14721;42.668;23.386;2023-02-22T03:57:07;14.30;;;5.93;;
27209;SDS011;14721;42.668;23.386;2023-02-22T03:59:34;13.40;;;5.60;;
27209;SDS011;14721;42.668;23.386;2023-02-22T04:02:01;17.93;;;6.20;;
27209;SDS011;14721;42.668;23.386;2023-02-22T04:04:26;12.13;;;5.23;;
27209;SDS011;14721;42.668;23.386;2023-02-22T04:06:52;17.03;;;6.13;;
27209;SDS011;14721;42.668;23.386;2023-02-22T04:09:18;19.90;;;6.87;;
27209;SDS011;14721;42.668;23.386;2023-02-22T04:11:44;13.63;;;5.87;;
27209;SDS011;14721;42.668;23.386;2023-02-22T04:14:11;10.60;;;5.47;;
27209;SDS011;14721;42.668;23.386;2023-02-22T04:16:37;13.00;;;5.50;;
27209;SDS011;14721;42.668;23.386;2023-02-22T04:19:04;11.50;;;6.10;;
27209;SDS011;14721;42.668;23.386;2023-02-22T04:21:30;13.50;;;5.30;;
27209;SDS011;14721;42.668;23.386;2023-02-22T04:23:56;12.47;;;5.07;;
27209;SDS011;14721;42.668;23.386;2023-02-22T04:26:23;11.90;;;6.27;;
27209;SDS011;14721;42.668;23.386;2023-02-22T04:28:48;12.77;;;5.00;;
27209;SDS011;14721;42.668;23.386;2023-02-22T04:31:14;14.57;;;5.43;;
27209;SDS011;14721;42.668;23.386;2023-02-22T04:33:44;9.73;;;5.40;;
27209;SDS011;14721;42.668;23.386;2023-02-22T04:36:11;13.03;;;5.50;;
27209;SDS011;14721;42.668;23.386;2023-02-22T04:38:40;22.73;;;6.47;;
27209;SDS011;14721;42.668;23.386;2023-02-22T04:41:09;8.57;;;4.93;;
27209;SDS011;14721;42.668;23.386;2023-02-22T04:43:35;20.57;;;6.13;;
27209;SDS011;14721;42.668;23.386;2023-02-22T04:46:02;16.33;;;5.77;;
27209;SDS011;14721;42.668;23.386;2023-02-22T04:48:28;14.30;;;5.87;;
27209;SDS011;14721;42.668;23.386;2023-02-22T04:50:55;17.53;;;7.77;;
27209;SDS011;14721;42.668;23.386;2023-02-22T04:53:24;18.50;;;6.03;;
27209;SDS011;14721;42.668;23.386;2023-02-22T04:55:49;22.00;;;7.97;;
27209;SDS011;14721;42.668;23.386;2023-02-22T04:58:15;13.77;;;6.93;;
27209;SDS011;14721;42.668;23.386;2023-02-22T05:00:41;18.17;;;7.37;;
27209;SDS011;14721;42.668;23.386;2023-02-22T05:03:07;17.90;;;7.40;;
27209;SDS011;14721;42.668;23.386;2023-02-22T05:05:33;18.87;;;7.20;;
27209;SDS011;14721;42.668;23.386;2023-02-22T05:07:59;19.87;;;8.10;;
27209;SDS011;14721;42.668;23.386;2023-02-22T05:10:25;18.70;;;7.73;;
27209;SDS011;14721;42.668;23.386;2023-02-22T05:12:51;17.90;;;7.47;;
27209;SDS011;14721;42.668;23.386;2023-02-22T05:15:18;17.27;;;8.23;;
27209;SDS011;14721;42.668;23.386;2023-02-22T05:17:45;23.47;;;8.83;;
27209;SDS011;14721;42.668;23.386;2023-02-22T05:20:21;20.40;;;8.33;;
27209;SDS011;14721;42.668;23.386;2023-02-22T05:22:56;19.47;;;8.00;;
27209;SDS011;14721;42.668;23.386;2023-02-22T05:25:31;17.50;;;8.10;;
27209;SDS011;14721;42.668;23.386;2023-02-22T05:28:06;22.33;;;10.13;;
27209;SDS011;14721;42.668;23.386;2023-02-22T05:30:45;23.70;;;10.03;;
27209;SDS011;14721;42.668;23.386;2023-02-22T05:33:11;21.10;;;9.33;;
27209;SDS011;14721;42.668;23.386;2023-02-22T05:35:37;27.97;;;9.90;;
27209;SDS011;14721;42.668;23.386;2023-02-22T05:38:12;23.00;;;9.30;;
27209;SDS011;14721;42.668;23.386;2023-02-22T05:43:44;21.47;;;9.40;;
27209;SDS011;14721;42.668;23.386;2023-02-22T05:46:30;28.93;;;9.30;;
27209;SDS011;14721;42.668;23.386;2023-02-22T05:48:56;26.23;;;9.20;;
27209;SDS011;14721;42.668;23.386;2023-02-22T05:51:21;24.90;;;9.97;;
27209;SDS011;14721;42.668;23.386;2023-02-22T05:53:47;28.97;;;10.77;;
27209;SDS011;14721;42.668;23.386;2023-02-22T05:56:20;24.97;;;9.57;;
27209;SDS011;14721;42.668;23.386;2023-02-22T05:58:48;25.33;;;9.87;;
27209;SDS011;14721;42.668;23.386;2023-02-22T06:01:16;25.83;;;10.47;;
27209;SDS011;14721;42.668;23.386;2023-02-22T06:03:52;31.43;;;10.37;;
27209;SDS011;14721;42.668;23.386;2023-02-22T06:06:20;26.83;;;12.20;;
27209;SDS011;14721;42.668;23.386;2023-02-22T06:08:45;36.07;;;12.17;;
27209;SDS011;14721;42.668;23.386;2023-02-22T06:11:11;28.53;;;12.10;;
27209;SDS011;14721;42.668;23.386;2023-02-22T06:13:37;28.40;;;11.80;;
27209;SDS011;14721;42.668;23.386;2023-02-22T06:16:04;25.50;;;12.27;;
27209;SDS011;14721;42.668;23.386;2023-02-22T06:18:31;32.77;;;12.33;;
27209;SDS011;14721;42.668;23.386;2023-02-22T06:20:57;28.40;;;13.20;;
27209;SDS011;14721;42.668;23.386;2023-02-22T06:23:23;25.50;;;11.57;;
27209;SDS011;14721;42.668;23.386;2023-02-22T06:25:50;24.80;;;9.10;;
27209;SDS011;14721;42.668;23.386;2023-02-22T06:28:18;22.47;;;9.03;;
27209;SDS011;14721;42.668;23.386;2023-02-22T06:30:44;25.80;;;8.53;;
27209;SDS011;14721;42.668;23.386;2023-02-22T06:33:10;20.67;;;7.50;;
27209;SDS011;14721;42.668;23.386;2023-02-22T06:35:37;23.07;;;8.00;;
27209;SDS011;14721;42.668;23.386;2023-02-22T06:38:05;17.37;;;8.17;;
27209;SDS011;14721;42.668;23.386;2023-02-22T06:40:34;18.50;;;8.67;;
27209;SDS011;14721;42.668;23.386;2023-02-22T06:43:01;16.20;;;7.90;;
27209;SDS011;14721;42.668;23.386;2023-02-22T06:45:27;17.90;;;6.30;;
27209;SDS011;14721;42.668;23.386;2023-02-22T06:47:52;17.87;;;7.07;;
27209;SDS011;14721;42.668;23.386;2023-02-22T06:50:27;18.00;;;7.33;;
27209;SDS011;14721;42.668;23.386;2023-02-22T06:52:54;19.57;;;8.13;;
27209;SDS011;14721;42.668;23.386;2023-02-22T06:55:21;19.63;;;7.70;;
27209;SDS011;14721;42.668;23.386;2023-02-22T06:57:49;18.20;;;8.87;;
27209;SDS011;14721;42.668;23.386;2023-02-22T07:00:16;14.60;;;6.83;;
27209;SDS011;14721;42.668;23.386;2023-02-22T07:02:43;21.70;;;8.03;;
27209;SDS011;14721;42.668;23.386;2023-02-22T07:05:09;20.27;;;9.00;;
27209;SDS011;14721;42.668;23.386;2023-02-22T07:07:37;26.10;;;9.50;;
27209;SDS011;14721;42.668;23.386;2023-02-22T07:10:03;37.50;;;11.57;;
27209;SDS011;14721;42.668;23.386;2023-02-22T07:12:32;33.00;;;12.77;;
27209;SDS011;14721;42.668;23.386;2023-02-22T07:14:58;36.07;;;12.70;;
27209;SDS011;14721;42.668;23.386;2023-02-22T07:17:24;27.30;;;13.93;;
27209;SDS011;14721;42.668;23.386;2023-02-22T07:19:49;32.33;;;14.23;;
27209;SDS011;14721;42.668;23.386;2023-02-22T07:22:15;32.70;;;12.83;;
27209;SDS011;14721;42.668;23.386;2023-02-22T07:24:41;27.83;;;13.57;;
27209;SDS011;14721;42.668;23.386;2023-02-22T07:27:07;31.27;;;13.87;;
27209;SDS011;14721;42.668;23.386;2023-02-22T07:29:33;24.70;;;12.25;;
27209;SDS011;14721;42.668;23.386;2023-02-22T07:32:00;22.37;;;11.77;;
27209;SDS011;14721;42.668;23.386;2023-02-22T07:34:26;24.47;;;13.33;;
27209;SDS011;14721;42.668;23.386;2023-02-22T07:36:51;20.30;;;10.60;;
27209;SDS011;14721;42.668;23.386;2023-02-22T07:39:17;27.65;;;11.70;;
27209;SDS011;14721;42.668;23.386;2023-02-22T07:41:42;35.22;;;12.00;;
27209;SDS011;14721;42.668;23.386;2023-02-22T07:44:08;23.15;;;11.15;;
27209;SDS011;14721;42.668;23.386;2023-02-22T07:46:33;20.98;;;8.77;;
27209;SDS011;14721;42.668;23.386;2023-02-22T07:48:59;22.65;;;8.18;;
27209;SDS011;14721;42.668;23.386;2023-02-22T07:51:24;15.32;;;7.93;;
27209;SDS011;14721;42.668;23.386;2023-02-22T07:53:51;21.17;;;8.57;;
27209;SDS011;14721;42.668;23.386;2023-02-22T07:56:16;17.23;;;7.35;;
27209;SDS011;14721;42.668;23.386;2023-02-22T07:58:42;13.15;;;7.90;;
27209;SDS011;14721;42.668;23.386;2023-02-22T08:01:07;18.75;;;8.95;;
27209;SDS011;14721;42.668;23.386;2023-02-22T08:03:34;16.45;;;8.05;;
27209;SDS011;14721;42.668;23.386;2023-02-22T08:06:01;22.90;;;9.35;;
27209;SDS011;14721;42.668;23.386;2023-02-22T08:08:28;18.85;;;9.77;;
27209;SDS011;14721;42.668;23.386;2023-02-22T08:10:54;27.05;;;10.75;;
27209;SDS011;14721;42.668;23.386;2023-02-22T08:13:19;19.88;;;10.85;;
27209;SDS011;14721;42.668;23.386;2023-02-22T08:15:46;26.63;;;12.13;;
27209;SDS011;14721;42.668;23.386;2023-02-22T08:18:13;25.05;;;12.07;;
27209;SDS011;14721;42.668;23.386;2023-02-22T08:20:40;27.27;;;12.02;;
27209;SDS011;14721;42.668;23.386;2023-02-22T08:23:08;24.48;;;11.95;;
27209;SDS011;14721;42.668;23.386;2023-02-22T08:25:34;18.48;;;10.18;;
27209;SDS011;14721;42.668;23.386;2023-02-22T08:28:01;24.65;;;11.80;;
27209;SDS011;14721;42.668;23.386;2023-02-22T08:30:29;29.73;;;12.40;;
27209;SDS011;14721;42.668;23.386;2023-02-22T08:32:57;21.55;;;11.63;;
27209;SDS011;14721;42.668;23.386;2023-02-22T08:35:23;21.13;;;10.93;;
27209;SDS011;14721;42.668;23.386;2023-02-22T08:37:52;20.98;;;12.15;;
27209;SDS011;14721;42.668;23.386;2023-02-22T08:40:21;26.65;;;12.93;;
27209;SDS011;14721;42.668;23.386;2023-02-22T08:42:48;26.33;;;11.57;;
27209;SDS011;14721;42.668;23.386;2023-02-22T08:45:14;27.00;;;13.43;;
27209;SDS011;14721;42.668;23.386;2023-02-22T08:47:40;26.53;;;11.87;;
27209;SDS011;14721;42.668;23.386;2023-02-22T08:50:06;25.83;;;13.10;;
27209;SDS011;14721;42.668;23.386;2023-02-22T08:52:32;25.90;;;13.30;;
27209;SDS011;14721;42.668;23.386;2023-02-22T08:55:00;31.70;;;12.88;;
27209;SDS011;14721;42.668;23.386;2023-02-22T08:57:26;28.87;;;14.07;;
27209;SDS011;14721;42.668;23.386;2023-02-22T08:59:52;26.20;;;12.73;;
27209;SDS011;14721;42.668;23.386;2023-02-22T09:02:18;27.13;;;12.17;;
27209;SDS011;14721;42.668;23.386;2023-02-22T09:04:46;29.23;;;12.20;;
27209;SDS011;14721;42.668;23.386;2023-02-22T09:07:13;24.43;;;11.87;;
27209;SDS011;14721;42.668;23.386;2023-02-22T09:09:41;28.70;;;12.33;;
27209;SDS011;14721;42.668;23.386;2023-02-22T09:12:07;24.63;;;11.43;;
27209;SDS011;14721;42.668;23.386;2023-02-22T09:14:33;24.77;;;10.17;;
27209;SDS011;14721;42.668;23.386;2023-02-22T09:16:58;21.53;;;7.83;;
27209;SDS011;14721;42.668;23.386;2023-02-22T09:19:24;13.17;;;6.80;;
27209;SDS011;14721;42.668;23.386;2023-02-22T09:21:53;21.37;;;9.43;;
27209;SDS011;14721;42.668;23.386;2023-02-22T09:24:19;13.30;;;6.60;;
27209;SDS011;14721;42.668;23.386;2023-02-22T09:26:45;27.70;;;11.77;;
27209;SDS011;14721;42.668;23.386;2023-02-22T09:29:12;20.53;;;11.30;;
27209;SDS011;14721;42.668;23.386;2023-02-22T09:31:38;22.47;;;9.93;;
27209;SDS011;14721;42.668;23.386;2023-02-22T09:34:05;19.53;;;8.70;;
27209;SDS011;14721;42.668;23.386;2023-02-22T09:36:39;17.10;;;8.37;;
27209;SDS011;14721;42.668;23.386;2023-02-22T09:39:05;15.73;;;6.00;;
27209;SDS011;14721;42.668;23.386;2023-02-22T09:41:34;13.77;;;5.90;;
27209;SDS011;14721;42.668;23.386;2023-02-22T09:46:49;9.53;;;4.47;;
27209;SDS011;14721;42.668;23.386;2023-02-22T09:52:03;8.25;;;3.47;;
27209;SDS011;14721;42.668;23.386;2023-02-22T09:54:47;7.55;;;3.13;;
27209;SDS011;14721;42.668;23.386;2023-02-22T09:57:36;13.87;;;3.70;;
27209;SDS011;14721;42.668;23.386;2023-02-22T10:00:06;8.80;;;3.27;;
27209;SDS011;14721;42.668;23.386;2023-02-22T10:05:26;6.32;;;2.72;;
27209;SDS011;14721;42.668;23.386;2023-02-22T10:08:02;6.60;;;3.15;;
27209;SDS011;14721;42.668;23.386;2023-02-22T10:10:33;6.70;;;2.60;;
27209;SDS011;14721;42.668;23.386;2023-02-22T10:15:48;5.75;;;2.65;;
27209;SDS011;14721;42.668;23.386;2023-02-22T10:26:33;5.38;;;1.88;;
27209;SDS011;14721;42.668;23.386;2023-02-22T10:29:04;8.40;;;2.47;;
27209;SDS011;14721;42.668;23.386;2023-02-22T10:31:39;5.90;;;2.10;;
27209;SDS011;14721;42.668;23.386;2023-02-22T10:34:16;5.30;;;2.30;;
27209;SDS011;14721;42.668;23.386;2023-02-22T10:36:59;5.57;;;2.83;;
27209;SDS011;14721;42.668;23.386;2023-02-22T10:39:39;4.97;;;2.47;;
27209;SDS011;14721;42.668;23.386;2023-02-22T10:42:08;7.13;;;2.90;;
27209;SDS011;14721;42.668;23.386;2023-02-22T10:44:34;6.88;;;2.85;;
27209;SDS011;14721;42.668;23.386;2023-02-22T10:47:07;6.20;;;2.40;;
27209;SDS011;14721;42.668;23.386;2023-02-22T10:49:38;5.10;;;2.47;;
27209;SDS011;14721;42.668;23.386;2023-02-22T10:52:14;5.15;;;2.15;;
27209;SDS011;14721;42.668;23.386;2023-02-22T10:54:46;8.27;;;2.80;;
27209;SDS011;14721;42.668;23.386;2023-02-22T10:57:15;4.82;;;2.70;;
27209;SDS011;14721;42.668;23.386;2023-02-22T10:59:46;8.05;;;3.28;;
27209;SDS011;14721;42.668;23.386;2023-02-22T11:02:17;10.20;;;2.50;;
27209;SDS011;14721;42.668;23.386;2023-02-22T11:04:49;5.22;;;2.35;;
27209;SDS011;14721;42.668;23.386;2023-02-22T11:07:21;4.75;;;2.60;;
27209;SDS011;14721;42.668;23.386;2023-02-22T11:12:55;6.82;;;2.30;;
27209;SDS011;14721;42.668;23.386;2023-02-22T11:17:50;5.35;;;2.80;;
27209;SDS011;14721;42.668;23.386;2023-02-22T11:20:18;6.28;;;3.00;;
27209;SDS011;14721;42.668;23.386;2023-02-22T11:22:53;6.47;;;3.20;;
27209;SDS011;14721;42.668;23.386;2023-02-22T11:25:24;7.65;;;3.17;;
27209;SDS011;14721;42.668;23.386;2023-02-22T11:30:39;6.40;;;2.67;;
27209;SDS011;14721;42.668;23.386;2023-02-22T11:43:50;3.97;;;1.90;;
27209;SDS011;14721;42.668;23.386;2023-02-22T11:49:00;6.18;;;2.08;;
27209;SDS011;14721;42.668;23.386;2023-02-22T11:51:33;3.42;;;1.85;;
27209;SDS011;14721;42.668;23.386;2023-02-22T11:54:09;10.98;;;5.40;;
27209;SDS011;14721;42.668;23.386;2023-02-22T11:56:49;6.13;;;2.83;;
27209;SDS011;14721;42.668;23.386;2023-02-22T12:03:03;5.95;;;1.95;;
27209;SDS011;14721;42.668;23.386;2023-02-22T12:13:20;4.63;;;1.75;;
27209;SDS011;14721;42.668;23.386;2023-02-22T12:20:57;4.43;;;2.22;;
27209;SDS011;14721;42.668;23.386;2023-02-22T12:26:17;4.18;;;1.80;;
27209;SDS011;14721;42.668;23.386;2023-02-22T12:28:53;5.03;;;1.70;;
27209;SDS011;14721;42.668;23.386;2023-02-22T12:31:35;8.07;;;1.73;;
27209;SDS011;14721;42.668;23.386;2023-02-22T12:36:50;2.95;;;1.55;;
27209;SDS011;14721;42.668;23.386;2023-02-22T12:41:57;4.30;;;1.40;;
27209;SDS011;14721;42.668;23.386;2023-02-22T12:44:35;2.00;;;1.10;;
27209;SDS011;14721;42.668;23.386;2023-02-22T12:47:05;4.40;;;1.70;;
27209;SDS011;14721;42.668;23.386;2023-02-22T12:49:49;3.55;;;1.70;;
27209;SDS011;14721;42.668;23.386;2023-02-22T12:55:24;3.30;;;1.50;;
27209;SDS011;14721;42.668;23.386;2023-02-22T13:06:03;3.00;;;1.60;;
27209;SDS011;14721;42.668;23.386;2023-02-22T13:14:31;3.63;;;1.95;;
27209;SDS011;14721;42.668;23.386;2023-02-22T13:17:02;3.42;;;1.63;;
27209;SDS011;14721;42.668;23.386;2023-02-22T13:19:36;3.20;;;1.40;;
27209;SDS011;14721;42.668;23.386;2023-02-22T13:28:04;4.63;;;1.63;;
27209;SDS011;14721;42.668;23.386;2023-02-22T13:36:58;4.38;;;2.15;;
27209;SDS011;14721;42.668;23.386;2023-02-22T13:42:42;4.18;;;2.40;;
27209;SDS011;14721;42.668;23.386;2023-02-22T13:50:48;7.13;;;2.42;;
27209;SDS011;14721;42.668;23.386;2023-02-22T13:53:23;3.13;;;1.60;;
27209;SDS011;14721;42.668;23.386;2023-02-22T13:55:52;4.32;;;1.92;;
27209;SDS011;14721;42.668;23.386;2023-02-22T13:58:21;4.90;;;1.80;;
27209;SDS011;14721;42.668;23.386;2023-02-22T14:00:57;3.80;;;1.83;;
27209;SDS011;14721;42.668;23.386;2023-02-22T14:03:31;6.90;;;1.80;;
27209;SDS011;14721;42.668;23.386;2023-02-22T14:06:05;3.50;;;2.03;;
27209;SDS011;14721;42.668;23.386;2023-02-22T14:11:02;9.75;;;2.33;;
27209;SDS011;14721;42.668;23.386;2023-02-22T14:16:27;2.22;;;1.45;;
27209;SDS011;14721;42.668;23.386;2023-02-22T14:18:59;3.30;;;2.00;;
27209;SDS011;14721;42.668;23.386;2023-02-22T14:21:26;5.07;;;2.40;;
27209;SDS011;14721;42.668;23.386;2023-02-22T14:23:55;3.53;;;2.10;;
27209;SDS011;14721;42.668;23.386;2023-02-22T14:26:34;3.92;;;1.88;;
27209;SDS011;14721;42.668;23.386;2023-02-22T14:31:33;4.30;;;1.75;;
27209;SDS011;14721;42.668;23.386;2023-02-22T14:34:18;3.03;;;1.88;;
27209;SDS011;14721;42.668;23.386;2023-02-22T14:37:03;8.82;;;2.80;;
27209;SDS011;14721;42.668;23.386;2023-02-22T14:39:47;7.70;;;2.60;;
27209;SDS011;14721;42.668;23.386;2023-02-22T14:47:43;3.95;;;1.95;;
27209;SDS011;14721;42.668;23.386;2023-02-22T14:50:24;4.70;;;2.00;;
27209;SDS011;14721;42.668;23.386;2023-02-22T14:55:40;5.10;;;2.72;;
27209;SDS011;14721;42.668;23.386;2023-02-22T14:58:27;4.13;;;1.92;;
27209;SDS011;14721;42.668;23.386;2023-02-22T15:01:16;5.80;;;2.08;;
27209;SDS011;14721;42.668;23.386;2023-02-22T15:03:47;4.65;;;2.20;;
27209;SDS011;14721;42.668;23.386;2023-02-22T15:06:20;4.22;;;2.40;;
27209;SDS011;14721;42.668;23.386;2023-02-22T15:08:49;6.55;;;2.20;;
27209;SDS011;14721;42.668;23.386;2023-02-22T15:11:30;7.90;;;2.63;;
27209;SDS011;14721;42.668;23.386;2023-02-22T15:13:57;7.63;;;3.10;;
27209;SDS011;14721;42.668;23.386;2023-02-22T15:16:25;4.50;;;2.10;;
27209;SDS011;14721;42.668;23.386;2023-02-22T15:18:53;5.78;;;1.85;;
27209;SDS011;14721;42.668;23.386;2023-02-22T15:21:22;5.68;;;2.28;;
27209;SDS011;14721;42.668;23.386;2023-02-22T15:23:51;3.90;;;2.15;;
27209;SDS011;14721;42.668;23.386;2023-02-22T15:26:22;5.65;;;2.58;;
27209;SDS011;14721;42.668;23.386;2023-02-22T15:28:55;5.75;;;3.28;;
27209;SDS011;14721;42.668;23.386;2023-02-22T15:31:31;5.15;;;2.30;;
27209;SDS011;14721;42.668;23.386;2023-02-22T15:35:04;3.95;;;2.20;;
27209;SDS011;14721;42.668;23.386;2023-02-22T15:36:56;5.93;;;2.28;;
27209;SDS011;14721;42.668;23.386;2023-02-22T15:39:36;7.72;;;3.22;;
27209;SDS011;14721;42.668;23.386;2023-02-22T15:42:11;4.88;;;2.67;;
27209;SDS011;14721;42.668;23.386;2023-02-22T15:44:45;5.85;;;2.92;;
27209;SDS011;14721;42.668;23.386;2023-02-22T15:47:17;6.90;;;4.00;;
27209;SDS011;14721;42.668;23.386;2023-02-22T15:52:48;5.97;;;3.50;;
27209;SDS011;14721;42.668;23.386;2023-02-22T15:55:30;7.97;;;3.83;;
27209;SDS011;14721;42.668;23.386;2023-02-22T16:00:40;6.43;;;3.65;;
27209;SDS011;14721;42.668;23.386;2023-02-22T16:03:10;12.98;;;3.92;;
27209;SDS011;14721;42.668;23.386;2023-02-22T16:05:45;6.88;;;3.45;;
27209;SDS011;14721;42.668;23.386;2023-02-22T16:10:39;7.15;;;3.75;;
27209;SDS011;14721;42.668;23.386;2023-02-22T16:13:22;10.18;;;5.30;;
27209;SDS011;14721;42.668;23.386;2023-02-22T16:18:30;11.63;;;4.93;;
27209;SDS011;14721;42.668;23.386;2023-02-22T16:21:02;10.13;;;4.10;;
27209;SDS011;14721;42.668;23.386;2023-02-22T16:23:42;7.75;;;3.92;;
27209;SDS011;14721;42.668;23.386;2023-02-22T16:28:45;11.13;;;4.32;;
27209;SDS011;14721;42.668;23.386;2023-02-22T16:31:15;13.57;;;4.30;;
27209;SDS011;14721;42.668;23.386;2023-02-22T16:33:44;8.18;;;3.75;;
27209;SDS011;14721;42.668;23.386;2023-02-22T16:36:10;12.53;;;5.00;;
27209;SDS011;14721;42.668;23.386;2023-02-22T16:38:35;12.33;;;6.03;;
27209;SDS011;14721;42.668;23.386;2023-02-22T16:41:03;10.30;;;4.80;;
27209;SDS011;14721;42.668;23.386;2023-02-22T16:43:30;13.43;;;4.57;;
27209;SDS011;14721;42.668;23.386;2023-02-22T16:45:59;9.70;;;4.93;;
27209;SDS011;14721;42.668;23.386;2023-02-22T16:48:27;13.07;;;4.20;;
27209;SDS011;14721;42.668;23.386;2023-02-22T16:50:55;8.00;;;5.00;;
27209;SDS011;14721;42.668;23.386;2023-02-22T16:53:25;23.77;;;5.33;;
27209;SDS011;14721;42.668;23.386;2023-02-22T16:55:55;11.00;;;4.47;;
27209;SDS011;14721;42.668;23.386;2023-02-22T16:58:26;10.77;;;4.93;;
27209;SDS011;14721;42.668;23.386;2023-02-22T17:00:53;8.83;;;4.63;;
27209;SDS011;14721;42.668;23.386;2023-02-22T17:03:21;7.90;;;4.70;;
27209;SDS011;14721;42.668;23.386;2023-02-22T17:05:47;16.27;;;5.33;;
27209;SDS011;14721;42.668;23.386;2023-02-22T17:08:13;12.10;;;5.27;;
27209;SDS011;14721;42.668;23.386;2023-02-22T17:10:40;13.40;;;5.97;;
27209;SDS011;14721;42.668;23.386;2023-02-22T17:13:06;11.23;;;5.03;;
27209;SDS011;14721;42.668;23.386;2023-02-22T17:15:34;12.77;;;5.57;;
27209;SDS011;14721;42.668;23.386;2023-02-22T17:18:01;12.37;;;5.13;;
27209;SDS011;14721;42.668;23.386;2023-02-22T17:20:37;10.37;;;4.93;;
27209;SDS011;14721;42.668;23.386;2023-02-22T17:23:04;11.17;;;5.77;;
27209;SDS011;14721;42.668;23.386;2023-02-22T17:28:05;30.97;;;13.97;;
27209;SDS011;14721;42.668;23.386;2023-02-22T17:30:31;12.30;;;5.27;;
27209;SDS011;14721;42.668;23.386;2023-02-22T17:32:58;10.63;;;5.10;;
27209;SDS011;14721;42.668;23.386;2023-02-22T17:35:34;11.20;;;4.83;;
27209;SDS011;14721;42.668;23.386;2023-02-22T17:38:01;11.77;;;4.90;;
27209;SDS011;14721;42.668;23.386;2023-02-22T17:40:30;14.00;;;5.53;;
27209;SDS011;14721;42.668;23.386;2023-02-22T17:42:57;12.90;;;4.90;;